Time;durP1;ratioP1;P1;durP2;ratioP2;P2;SDS_P1;SDS_P2;PMS_P1;PMS_P2;Temp;Humidity;BMP_temperature;BMP_pressure;BME280_temperature;BME280_humidity;BME280_pressure;Samples;Min_cycle;Max_cycle;Signal;HPM_P1;HPM_P2
2023/04/05 00:00:10;;;;;;;13.13;7.72;;;;;;;1.28;47.28;96067.72;5020115;28;20109;-75
2023/04/05 00:02:35;;;;;;;11.32;6.45;;;;;;;1.15;38.76;96061.66;5016286;28;20086;-74
2023/04/05 00:05:04;;;;;;;6.18;4.00;;;;;;;0.91;37.21;96065.91;5019231;28;20535;-75
2023/04/05 00:07:29;;;;;;;10.07;6.45;;;;;;;0.90;44.55;96058.97;5017435;28;20059;-75
2023/04/05 00:09:54;;;;;;;4.75;3.22;;;;;;;0.52;35.84;96063.28;5017721;28;20077;-75
2023/04/05 00:12:20;;;;;;;12.23;6.35;;;;;;;0.58;46.29;96065.47;5022682;28;20427;-75
2023/04/05 00:14:45;;;;;;;8.02;5.25;;;;;;;0.57;38.84;96069.06;5021120;28;20077;-75
2023/04/05 00:17:11;;;;;;;9.10;4.85;;;;;;;0.67;43.27;96063.16;5020544;28;20085;-74
2023/04/05 00:19:38;;;;;;;9.93;5.68;;;;;;;0.72;43.21;96059.28;5022866;28;20261;-75
2023/04/05 00:22:03;;;;;;;8.52;3.90;;;;;;;0.61;36.24;96061.00;5004747;28;20499;-74
2023/04/05 00:24:29;;;;;;;6.88;3.90;;;;;;;0.38;38.99;96055.53;5021516;28;20142;-75
2023/04/05 00:26:55;;;;;;;8.77;5.25;;;;;;;0.45;43.91;96056.78;5020874;28;20111;-74
2023/04/05 00:29:21;;;;;;;10.77;6.65;;;;;;;0.58;48.56;96054.19;5021287;28;20082;-75
2023/04/05 00:31:46;;;;;;;11.95;7.47;;;;;;;0.66;49.95;96045.78;5021153;28;20380;-75
2023/04/05 00:34:11;;;;;;;10.55;6.88;;;;;;;0.73;49.55;96045.22;5022580;28;20126;-74
2023/04/05 00:36:37;;;;;;;9.68;6.38;;;;;;;0.78;47.25;96049.34;5022104;28;20054;-75
2023/04/05 00:39:02;;;;;;;10.20;6.30;;;;;;;0.76;47.30;96040.75;5022737;28;20097;-74
2023/04/05 00:41:28;;;;;;;10.15;6.65;;;;;;;0.79;48.84;96045.78;5022257;28;20597;-75
2023/04/05 00:43:53;;;;;;;9.90;6.78;;;;;;;0.82;48.54;96045.56;5022567;28;20100;-75
2023/04/05 00:46:19;;;;;;;10.57;7.03;;;;;;;0.84;49.88;96033.19;5037585;28;20485;-75
2023/04/05 00:48:44;;;;;;;9.30;6.13;;;;;;;0.88;49.12;96042.50;5004326;28;20124;-75
2023/04/05 00:51:10;;;;;;;8.95;5.65;;;;;;;0.80;43.07;96035.19;5021335;28;20051;-75
2023/04/05 00:53:36;;;;;;;11.27;6.85;;;;;;;0.76;49.76;96036.34;5004254;28;20116;-75
2023/04/05 00:56:02;;;;;;;9.93;6.88;;;;;;;0.76;50.33;96031.09;5020310;28;20613;-74
2023/04/05 00:58:28;;;;;;;8.88;5.18;;;;;;;0.81;47.59;96029.00;5020254;28;20068;-75
2023/04/05 01:01:05;;;;;;;9.38;6.25;;;;;;;0.70;44.46;96028.91;5019400;28;20075;-75
2023/04/05 01:03:31;;;;;;;8.65;4.97;;;;;;;0.39;38.29;96025.75;5004839;28;20163;-74
2023/04/05 01:06:03;;;;;;;8.98;5.93;;;;;;;0.39;47.45;96026.59;5019689;28;20087;-75
2023/04/05 01:09:02;;;;;;;8.57;6.15;;;;;;;0.46;50.41;96022.63;5020646;28;20632;-75
2023/04/05 01:11:27;;;;;;;10.93;6.90;;;;;;;0.54;51.36;96026.47;5036308;28;20510;-74
2023/04/05 01:13:59;;;;;;;9.65;6.00;;;;;;;0.56;49.79;96020.22;5020237;28;20086;-75
2023/04/05 01:16:26;;;;;;;9.82;6.20;;;;;;;0.57;48.08;96016.63;5019230;28;20054;-75
2023/04/05 01:18:55;;;;;;;10.95;6.65;;;;;;;0.60;51.40;96010.34;5021513;28;20496;-74
2023/04/05 01:21:39;;;;;;;8.10;5.45;;;;;;;0.53;47.01;96012.56;5021116;28;20400;-74
2023/04/05 01:24:56;;;;;;;6.97;4.90;;;;;;;0.14;38.27;96009.91;5021590;28;20056;-74
2023/04/05 01:27:25;;;;;;;9.65;5.88;;;;;;;0.18;49.58;96010.56;5013602;28;20081;-75
2023/04/05 01:29:56;;;;;;;8.07;5.00;;;;;;;0.15;47.77;96018.59;5004082;28;20506;-75
2023/04/05 01:32:44;;;;;;;10.43;6.38;;;;;;;0.19;51.78;96010.44;5019175;28;20129;-75
2023/04/05 01:35:23;;;;;;;9.65;5.25;;;;;;;0.14;47.28;96015.13;5021694;28;20084;-75
2023/04/05 01:37:53;;;;;;;10.10;5.80;;;;;;;0.12;51.88;96014.41;5002970;28;20362;-74
2023/04/05 01:40:18;;;;;;;10.57;5.93;;;;;;;0.15;52.47;96016.00;5004111;28;20184;-74
2023/04/05 01:42:46;;;;;;;9.63;5.68;;;;;;;0.16;52.32;96015.03;5019686;28;20142;-75
2023/04/05 01:45:12;;;;;;;9.23;6.00;;;;;;;-0.00;51.37;96012.63;5021273;28;20074;-75
2023/04/05 01:47:37;;;;;;;11.00;5.70;;;;;;;-0.01;51.89;96009.16;5021053;28;20076;-74
2023/04/05 01:50:03;;;;;;;9.77;5.70;;;;;;;0.02;52.47;96011.56;5002177;28;20080;-74
2023/04/05 01:52:28;;;;;;;8.18;5.53;;;;;;;0.02;52.81;96000.25;5018611;28;20083;-75
2023/04/05 01:54:54;;;;;;;7.13;4.97;;;;;;;0.00;51.78;96005.59;5021042;28;20080;-75
2023/04/05 01:57:19;;;;;;;11.07;6.07;;;;;;;-0.09;51.90;95999.22;5020858;28;20134;-75
2023/04/05 01:59:45;;;;;;;8.27;5.47;;;;;;;-0.12;52.66;95998.56;5036400;28;20060;-75
2023/04/05 02:02:10;;;;;;;7.47;4.93;;;;;;;-0.13;52.03;96002.94;5019389;28;20089;-74
2023/04/05 02:04:35;;;;;;;7.97;4.80;;;;;;;-0.15;50.81;96001.38;5019326;28;20375;-75
2023/04/05 02:07:01;;;;;;;8.43;5.53;;;;;;;-0.22;52.51;96003.56;5019015;28;20071;-74
2023/04/05 02:09:27;;;;;;;7.93;5.47;;;;;;;-0.28;53.19;95990.88;5020698;28;20063;-75
2023/04/05 02:11:52;;;;;;;8.20;5.05;;;;;;;-0.32;52.29;95993.72;5020326;28;20066;-74
2023/04/05 02:14:18;;;;;;;8.18;5.20;;;;;;;-0.29;53.12;95989.19;5020408;28;20091;-75
2023/04/05 02:16:43;;;;;;;6.88;4.97;;;;;;;-0.38;51.67;95985.41;5020035;28;20090;-75
2023/04/05 02:19:09;;;;;;;7.55;4.40;;;;;;;-0.55;48.24;95984.72;5021181;28;20057;-75
2023/04/05 02:21:35;;;;;;;8.43;5.13;;;;;;;-0.53;52.94;95990.72;5017313;28;20112;-74
2023/04/05 02:24:00;;;;;;;9.25;4.90;;;;;;;-0.54;51.59;95982.97;5020765;28;20056;-74
2023/04/05 02:26:26;;;;;;;8.75;5.00;;;;;;;-0.61;49.59;95988.56;5018922;28;20088;-74
2023/04/05 02:28:51;;;;;;;7.55;4.72;;;;;;;-0.74;51.17;95987.69;5020056;28;20052;-74
2023/04/05 02:31:17;;;;;;;6.78;4.70;;;;;;;-0.81;53.06;95995.09;5020641;28;20052;-74
2023/04/05 02:33:42;;;;;;;8.48;4.95;;;;;;;-0.84;49.92;95988.25;5018856;28;20140;-74
2023/04/05 02:36:09;;;;;;;9.63;5.15;;;;;;;-0.86;53.79;95992.75;5019379;28;20058;-74
2023/04/05 02:38:35;;;;;;;8.85;5.13;;;;;;;-0.87;51.63;95987.63;5018792;28;20593;-75
2023/04/05 02:41:00;;;;;;;8.77;5.60;;;;;;;-0.86;54.37;95991.91;5019768;28;20314;-74
2023/04/05 02:43:26;;;;;;;9.23;5.60;;;;;;;-0.85;53.51;95996.19;5019144;28;20416;-75
2023/04/05 02:45:51;;;;;;;9.82;5.32;;;;;;;-0.85;53.16;95986.59;5018592;28;20087;-75
2023/04/05 02:48:16;;;;;;;8.52;5.32;;;;;;;-0.88;53.03;95983.34;5019194;28;20094;-75
2023/04/05 02:50:49;;;;;;;10.30;5.30;;;;;;;-0.95;51.38;95981.09;5019425;28;20086;-74
2023/04/05 02:53:18;;;;;;;7.60;4.88;;;;;;;-1.08;45.99;95978.38;5020216;28;20591;-75
2023/04/05 02:55:58;;;;;;;9.27;5.18;;;;;;;-1.24;51.55;95973.31;5018331;28;20069;-75
2023/04/05 02:58:24;;;;;;;7.88;4.70;;;;;;;-1.20;52.84;95971.31;5001937;28;20090;-75
2023/04/05 03:00:50;;;;;;;8.52;4.80;;;;;;;-1.17;54.31;95970.28;5017477;28;20066;-74
2023/04/05 03:03:19;;;;;;;7.88;4.78;;;;;;;-1.11;54.28;95970.72;5017619;28;20087;-75
2023/04/05 03:05:46;;;;;;;8.55;4.93;;;;;;;-1.06;54.09;95973.06;5019137;28;20151;-75
2023/04/05 03:08:22;;;;;;;6.78;4.40;;;;;;;-1.10;52.08;95968.97;5002083;28;20068;-75
2023/04/05 03:10:50;;;;;;;7.72;4.47;;;;;;;-1.08;52.64;95967.13;5002687;28;20347;-75
2023/04/05 03:13:15;;;;;;;7.97;4.70;;;;;;;-1.11;54.51;95970.72;5033176;28;20193;-75
2023/04/05 03:15:41;;;;;;;6.43;4.47;;;;;;;-1.17;53.70;95972.91;5001389;28;20063;-74
2023/04/05 03:18:06;;;;;;;7.57;4.60;;;;;;;-1.26;54.14;95971.69;5018342;28;20086;-75
2023/04/05 03:20:39;;;;;;;6.70;4.47;;;;;;;-1.34;46.13;95966.94;5001637;28;20657;-74
2023/04/05 03:23:07;;;;;;;6.10;4.10;;;;;;;-1.38;54.20;95968.06;5018098;28;20075;-74
2023/04/05 03:25:36;;;;;;;6.75;4.30;;;;;;;-1.37;51.69;95962.75;5001300;28;20596;-74
2023/04/05 03:28:05;;;;;;;7.85;4.57;;;;;;;-1.40;51.47;95970.78;5017683;28;20524;-74
2023/04/05 03:30:34;;;;;;;7.90;4.72;;;;;;;-1.39;53.35;95966.41;5017870;28;20096;-74
2023/04/05 03:33:00;;;;;;;7.45;4.45;;;;;;;-1.35;53.27;95962.66;5018068;28;20156;-74
2023/04/05 03:35:27;;;;;;;7.43;4.65;;;;;;;-1.36;52.66;95966.19;5017094;28;20065;-75
2023/04/05 03:37:52;;;;;;;8.52;4.70;;;;;;;-1.34;55.07;95966.94;5017718;28;20124;-75
2023/04/05 03:40:18;;;;;;;8.35;4.68;;;;;;;-1.39;48.67;95966.41;5018202;28;20082;-74
2023/04/05 03:42:44;;;;;;;9.38;5.13;;;;;;;-1.41;54.63;95968.25;5019455;28;20228;-75
2023/04/05 03:45:09;;;;;;;6.72;4.25;;;;;;;-1.43;49.79;95970.16;5017985;28;20136;-75
2023/04/05 03:47:36;;;;;;;7.78;4.45;;;;;;;-1.43;53.72;95973.56;5022166;28;20167;-74
2023/04/05 03:50:02;;;;;;;7.40;4.72;;;;;;;-1.37;55.80;95975.81;5021648;28;20078;-75
2023/04/05 03:52:28;;;;;;;6.60;4.43;;;;;;;-1.35;54.96;95971.31;5023952;28;20065;-74
2023/04/05 03:54:53;;;;;;;7.40;4.57;;;;;;;-1.40;53.81;95969.94;5022073;28;20098;-74
2023/04/05 03:57:18;;;;;;;8.05;4.88;;;;;;;-1.41;55.92;95969.13;5023092;28;20086;-74
2023/04/05 03:59:44;;;;;;;6.18;4.28;;;;;;;-1.41;56.13;95969.13;5021955;28;20429;-75
2023/04/05 04:02:10;;;;;;;7.82;4.47;;;;;;;-1.46;55.16;95956.31;5022133;28;20164;-75
2023/04/05 04:04:35;;;;;;;7.20;4.47;;;;;;;-1.53;55.37;95959.41;5022994;28;20440;-75
2023/04/05 04:07:00;;;;;;;6.35;4.35;;;;;;;-1.59;55.68;95958.03;5022928;28;20073;-74
2023/04/05 04:09:28;;;;;;;7.15;4.43;;;;;;;-1.63;55.28;95951.31;5037220;28;20547;-75
2023/04/05 04:11:55;;;;;;;7.43;4.45;;;;;;;-1.64;54.35;95962.66;5022735;28;20355;-75
2023/04/05 04:14:21;;;;;;;7.32;4.28;;;;;;;-1.69;56.14;95962.13;5020916;28;20094;-74
2023/04/05 04:16:46;;;;;;;6.20;4.07;;;;;;;-1.77;49.07;95962.56;5022652;28;20068;-75
2023/04/05 04:19:21;;;;;;;7.32;4.57;;;;;;;-1.80;54.98;95963.59;5018983;28;20083;-74
2023/04/05 04:21:49;;;;;;;7.72;4.88;;;;;;;-1.77;54.60;95957.34;5020970;28;20577;-75
2023/04/05 04:24:17;;;;;;;6.57;4.35;;;;;;;-1.80;54.12;95957.56;5021478;28;20054;-75
2023/04/05 04:26:44;;;;;;;6.78;4.50;;;;;;;-1.85;53.28;95963.88;5004856;28;20077;-75
2023/04/05 04:29:11;;;;;;;6.57;4.50;;;;;;;-1.87;55.48;95962.28;5022478;28;20081;-74
2023/04/05 04:31:44;;;;;;;6.25;4.40;;;;;;;-1.84;56.21;95964.72;5022674;28;20152;-75
2023/04/05 04:34:12;;;;;;;6.72;4.10;;;;;;;-1.80;56.17;95968.00;5005109;28;20120;-74
2023/04/05 04:36:41;;;;;;;7.28;4.55;;;;;;;-1.79;55.65;95962.69;5022850;28;20065;-74
2023/04/05 04:39:09;;;;;;;5.93;3.95;;;;;;;-1.75;55.04;95968.53;5021190;28;20115;-75
2023/04/05 04:41:35;;;;;;;7.43;4.20;;;;;;;-1.85;47.85;95965.66;5020806;28;20082;-75
2023/04/05 04:44:03;;;;;;;6.85;4.28;;;;;;;-1.83;55.70;95963.81;5021296;28;20185;-75
2023/04/05 04:46:33;;;;;;;7.05;4.18;;;;;;;-1.80;56.77;95963.59;5020726;28;20092;-75
2023/04/05 04:49:04;;;;;;;6.15;4.00;;;;;;;-1.78;57.69;95966.97;5021046;28;20499;-75
2023/04/05 04:51:31;;;;;;;6.28;3.80;;;;;;;-1.73;57.69;95957.06;5021018;28;20126;-75
2023/04/05 04:53:59;;;;;;;5.55;3.95;;;;;;;-1.73;57.49;95964.91;5020500;28;20101;-75
2023/04/05 04:56:24;;;;;;;6.13;4.35;;;;;;;-1.71;58.00;95956.97;5020557;28;20082;-75
2023/04/05 04:58:55;;;;;;;7.43;4.80;;;;;;;-1.70;58.12;95955.22;5022137;28;20092;-75
2023/04/05 05:01:21;;;;;;;9.13;5.35;;;;;;;-1.75;56.55;95958.94;5004006;28;20634;-75
2023/04/05 05:03:47;;;;;;;7.90;4.75;;;;;;;-1.79;56.83;95954.00;5021523;28;20100;-74
2023/04/05 05:06:15;;;;;;;8.20;4.90;;;;;;;-1.85;55.46;95958.66;5019218;28;20079;-75
2023/04/05 05:08:41;;;;;;;7.70;4.50;;;;;;;-1.86;57.45;95962.19;5020159;28;20473;-74
2023/04/05 05:11:06;;;;;;;7.18;4.57;;;;;;;-1.89;56.57;95961.53;5021761;28;20146;-74
2023/04/05 05:13:32;;;;;;;7.82;4.30;;;;;;;-1.89;56.68;95964.16;5036563;28;20146;-74
2023/04/05 05:15:59;;;;;;;7.22;4.53;;;;;;;-1.87;57.64;95965.75;5021363;28;20061;-75
2023/04/05 05:18:24;;;;;;;6.88;4.28;;;;;;;-1.84;57.09;95962.09;5022067;28;20084;-75
2023/04/05 05:20:50;;;;;;;6.63;4.20;;;;;;;-1.79;56.15;95969.66;5021279;28;20067;-75
2023/04/05 05:23:16;;;;;;;7.97;4.55;;;;;;;-1.80;56.62;95960.16;5003928;28;20134;-75
2023/04/05 05:25:41;;;;;;;7.50;4.78;;;;;;;-1.74;57.60;95965.84;5021452;28;20228;-75
2023/04/05 05:28:07;;;;;;;7.35;4.50;;;;;;;-1.70;55.95;95961.25;5022099;28;20063;-74
2023/04/05 05:30:32;;;;;;;8.10;4.60;;;;;;;-1.67;55.15;95962.88;5021257;28;20080;-75
2023/04/05 05:32:57;;;;;;;6.85;4.50;;;;;;;-1.65;55.73;95963.59;5019410;28;20095;-75
2023/04/05 05:35:23;;;;;;;8.15;5.00;;;;;;;-1.58;55.34;95964.91;5021614;28;20139;-75
2023/04/05 05:37:48;;;;;;;6.60;3.92;;;;;;;-1.58;55.94;95957.09;5020957;28;20411;-75
2023/04/05 05:40:15;;;;;;;6.85;3.95;;;;;;;-1.50;53.84;95959.22;5021146;28;20509;-74
2023/04/05 05:42:40;;;;;;;8.82;4.47;;;;;;;-1.40;54.03;95964.72;5021410;28;20114;-74
2023/04/05 05:45:09;;;;;;;6.05;4.05;;;;;;;-1.29;54.65;95958.84;5019271;28;20727;-75
2023/04/05 05:47:35;;;;;;;6.60;3.78;;;;;;;-1.17;56.13;95962.44;5021369;28;20057;-74
2023/04/05 05:50:00;;;;;;;7.28;3.95;;;;;;;-1.03;53.93;95961.56;5021161;28;20581;-74
2023/04/05 05:52:26;;;;;;;5.65;4.07;;;;;;;-0.90;54.63;95962.53;5021579;28;20065;-74
2023/04/05 05:54:51;;;;;;;5.35;3.78;;;;;;;-0.77;55.56;95964.34;5020476;28;20709;-74
2023/04/05 05:57:16;;;;;;;7.63;3.88;;;;;;;-0.62;55.13;95963.38;5020608;28;20076;-74
2023/04/05 05:59:42;;;;;;;5.25;3.53;;;;;;;-0.44;54.89;95960.47;5020224;28;20055;-74
2023/04/05 06:02:07;;;;;;;6.05;3.97;;;;;;;-0.28;54.85;95962.06;5018375;28;20534;-75
2023/04/05 06:04:33;;;;;;;8.20;4.03;;;;;;;-0.11;54.04;95958.34;5036214;28;20069;-74
2023/04/05 06:06:59;;;;;;;8.88;4.32;;;;;;;0.00;48.46;95961.09;5018327;28;20085;-74
2023/04/05 06:09:25;;;;;;;7.00;4.53;;;;;;;0.08;50.62;95958.78;5018448;28;20547;-74
2023/04/05 06:11:53;;;;;;;6.57;4.25;;;;;;;0.19;51.27;95955.47;5019335;28;20083;-74
2023/04/05 06:14:19;;;;;;;7.90;4.53;;;;;;;0.30;49.26;95964.34;5020209;28;20364;-74
2023/04/05 06:16:45;;;;;;;8.93;5.35;;;;;;;0.39;49.42;95960.25;5018268;28;20299;-74
2023/04/05 06:19:13;;;;;;;6.97;4.47;;;;;;;0.58;52.22;95960.66;5021315;28;20039;-74
2023/04/05 06:21:38;;;;;;;11.23;4.97;;;;;;;0.77;50.64;95962.00;5034992;28;20176;-74
2023/04/05 06:24:04;;;;;;;7.95;4.78;;;;;;;1.05;49.64;95954.78;5018569;28;20472;-67
2023/04/05 06:26:30;;;;;;;7.05;4.43;;;;;;;1.32;50.20;95956.38;5017310;28;20450;-68
2023/04/05 06:28:56;;;;;;;8.00;4.90;;;;;;;1.54;48.95;95965.34;5018634;28;20056;-68
2023/04/05 06:31:30;;;;;;;6.63;4.35;;;;;;;1.65;46.27;95963.69;5019130;28;20049;-67
2023/04/05 06:33:56;;;;;;;11.07;5.70;;;;;;;1.80;48.25;95961.75;5018456;28;20091;-68
2023/04/05 06:36:21;;;;;;;10.05;7.00;;;;;;;1.94;48.87;95958.91;5019255;28;20057;-68
2023/04/05 06:38:46;;;;;;;9.57;6.60;;;;;;;2.07;48.04;95957.97;5019458;28;20590;-67
2023/04/05 06:41:12;;;;;;;10.23;6.25;;;;;;;2.23;48.98;95962.91;5016817;28;20078;-67
2023/04/05 06:43:37;;;;;;;10.05;6.47;;;;;;;2.33;47.51;95965.66;5019655;28;20050;-67
2023/04/05 06:46:03;;;;;;;9.70;6.00;;;;;;;2.43;46.93;95960.53;5019338;28;20476;-68
2023/04/05 06:48:29;;;;;;;10.80;6.10;;;;;;;2.55;46.70;95959.59;5017785;28;20544;-68
2023/04/05 06:50:58;;;;;;;7.78;5.35;;;;;;;2.69;44.12;95957.69;5015208;28;20076;-67
2023/04/05 06:53:26;;;;;;;14.98;6.55;;;;;;;2.82;44.31;95961.00;5012114;28;20124;-67
2023/04/05 06:55:52;;;;;;;10.02;6.88;;;;;;;2.58;43.76;95956.72;5016457;28;20058;-68
2023/04/05 06:58:17;;;;;;;8.65;4.82;;;;;;;2.84;42.07;95958.25;5018668;28;20076;-67
2023/04/05 07:00:43;;;;;;;8.90;5.38;;;;;;;2.96;41.22;95951.22;5018154;28;20045;-67
2023/04/05 07:03:08;;;;;;;6.20;4.10;;;;;;;3.14;39.30;95959.44;5017368;28;20085;-68
2023/04/05 07:05:34;;;;;;;8.70;5.18;;;;;;;3.23;41.39;95956.06;5018741;28;20079;-68
2023/04/05 07:08:00;;;;;;;9.05;5.10;;;;;;;3.45;38.58;95953.50;5019078;28;20111;-67
2023/04/05 07:10:25;;;;;;;6.25;3.80;;;;;;;3.60;32.83;95951.44;5018208;28;20086;-67
2023/04/05 07:12:51;;;;;;;6.13;3.70;;;;;;;3.57;33.22;95947.22;5015339;28;20055;-68
2023/04/05 07:15:16;;;;;;;8.52;4.38;;;;;;;3.65;36.22;95950.09;5014485;28;20075;-67
2023/04/05 07:17:42;;;;;;;10.23;5.65;;;;;;;3.65;33.96;95960.63;5016686;28;20449;-67
2023/04/05 07:20:08;;;;;;;9.90;5.07;;;;;;;3.61;34.79;95953.09;5015759;28;20109;-67
2023/04/05 07:22:34;;;;;;;7.28;4.93;;;;;;;3.84;34.82;95948.56;5018266;28;20090;-68
2023/04/05 07:25:00;;;;;;;6.85;4.13;;;;;;;4.03;33.00;95953.16;5019574;28;20687;-68
2023/04/05 07:27:25;;;;;;;15.50;10.27;;;;;;;3.97;34.28;95952.81;5018510;28;20051;-68
2023/04/05 07:29:51;;;;;;;17.55;10.55;;;;;;;3.92;37.42;95951.38;5016083;28;20603;-68
2023/04/05 07:32:16;;;;;;;14.88;10.43;;;;;;;4.02;33.55;95953.28;5014944;28;20102;-68
2023/04/05 07:34:42;;;;;;;8.38;3.80;;;;;;;3.53;28.63;95940.56;5015298;28;20537;-68
2023/04/05 07:37:07;;;;;;;11.40;6.88;;;;;;;3.89;33.86;95946.41;5015202;28;20041;-68
2023/04/05 07:39:32;;;;;;;8.98;5.65;;;;;;;4.27;32.25;95944.13;5018158;28;20381;-73
2023/04/05 07:41:58;;;;;;;17.65;11.25;;;;;;;4.38;32.10;95945.84;5017197;28;20030;-73
2023/04/05 07:44:23;;;;;;;10.15;6.10;;;;;;;4.69;33.03;95945.84;5019613;28;20558;-73
2023/04/05 07:46:51;;;;;;;18.17;11.13;;;;;;;4.44;32.90;95941.84;5017982;28;20056;-72
2023/04/05 07:49:17;;;;;;;9.57;4.97;;;;;;;4.40;32.03;95945.72;5019267;28;20061;-73
2023/04/05 07:51:42;;;;;;;21.15;11.98;;;;;;;4.67;32.15;95945.16;5018847;28;20083;-68
2023/04/05 07:54:08;;;;;;;19.75;14.43;;;;;;;4.82;33.64;95939.50;5017478;28;20079;-68
2023/04/05 07:56:33;;;;;;;12.77;8.65;;;;;;;5.16;32.04;95939.22;5017489;28;20322;-66
2023/04/05 07:58:58;;;;;;;7.50;3.83;;;;;;;5.43;27.61;95934.25;5031884;28;20037;-68
2023/04/05 08:01:27;;;;;;;5.65;3.40;;;;;;;4.89;27.39;95940.66;5017789;28;20041;-68
2023/04/05 08:03:58;;;;;;;10.48;6.18;;;;;;;4.91;29.11;95944.00;5019061;28;20514;-68
2023/04/05 08:06:23;;;;;;;23.40;15.85;;;;;;;5.20;31.93;95945.03;5016899;28;20041;-68
2023/04/05 08:08:49;;;;;;;25.90;18.17;;;;;;;5.43;32.91;95943.00;5016101;28;20038;-67
2023/04/05 08:11:14;;;;;;;25.58;18.17;;;;;;;5.69;33.40;95942.47;5019295;28;20090;-67
2023/04/05 08:13:40;;;;;;;18.20;11.98;;;;;;;5.86;32.41;95938.28;5018488;28;20042;-67
2023/04/05 08:16:07;;;;;;;39.15;29.77;;;;;;;5.53;33.08;95943.03;5017036;28;20044;-67
2023/04/05 08:18:32;;;;;;;45.10;29.63;;;;;;;5.77;36.05;95938.28;5018079;28;20046;-67
2023/04/05 08:20:58;;;;;;;26.35;19.05;;;;;;;6.09;33.79;95940.63;5017744;28;20126;-67
2023/04/05 08:23:23;;;;;;;36.88;26.27;;;;;;;6.11;33.13;95928.09;5011460;28;20065;-67
2023/04/05 08:25:49;;;;;;;10.85;7.72;;;;;;;6.30;26.16;95930.84;5014977;28;20061;-67
2023/04/05 08:28:14;;;;;;;34.08;21.88;;;;;;;6.12;31.81;95928.91;5015351;28;20045;-67
2023/04/05 08:30:40;;;;;;;34.03;23.95;;;;;;;6.29;31.02;95929.19;5015892;28;20552;-67
2023/04/05 08:33:06;;;;;;;47.33;33.85;;;;;;;6.43;34.73;95934.00;5019546;28;20499;-68
2023/04/05 08:35:31;;;;;;;41.92;28.60;;;;;;;6.50;32.33;95936.94;5021341;28;20115;-67
2023/04/05 08:37:57;;;;;;;14.05;9.88;;;;;;;6.14;25.10;95929.63;5021573;28;20083;-67
2023/04/05 08:40:25;;;;;;;34.03;24.30;;;;;;;5.41;32.06;95937.03;5020145;28;20570;-67
2023/04/05 08:42:56;;;;;;;36.17;24.83;;;;;;;5.87;33.22;95936.47;5004712;28;20041;-67
2023/04/05 08:45:22;;;;;;;46.00;33.65;;;;;;;6.16;36.45;95938.25;5021156;28;20097;-67
2023/04/05 08:47:47;;;;;;;8.63;5.30;;;;;;;6.00;26.17;95933.53;5020771;28;20029;-67
2023/04/05 08:50:13;;;;;;;21.88;14.23;;;;;;;6.18;27.68;95924.88;5019819;28;20558;-67
2023/04/05 08:52:40;;;;;;;23.83;18.73;;;;;;;6.54;28.82;95926.91;5019245;28;20052;-68
2023/04/05 08:55:06;;;;;;;51.42;38.90;;;;;;;6.53;34.25;95931.34;5019053;28;20029;-68
2023/04/05 08:57:31;;;;;;;8.07;3.72;;;;;;;6.91;23.97;95934.00;5020861;28;20525;-68
2023/04/05 08:59:57;;;;;;;8.07;4.35;;;;;;;5.01;25.33;95933.47;5020974;28;20033;-67
2023/04/05 09:02:23;;;;;;;7.32;3.95;;;;;;;5.60;24.87;95924.81;5017778;28;20101;-67
2023/04/05 09:04:48;;;;;;;33.22;22.75;;;;;;;5.10;30.99;95931.84;5002802;28;20047;-68
2023/04/05 09:07:14;;;;;;;21.67;12.25;;;;;;;5.88;25.76;95930.22;5017596;28;20025;-67
2023/04/05 09:09:42;;;;;;;29.58;20.95;;;;;;;6.33;30.66;95925.28;5018390;28;20049;-67
2023/04/05 09:12:08;;;;;;;;;;;;;;;6.45;34.89;95931.22;5022304;28;20064;-67
2023/04/05 09:14:33;;;;;;;42.23;31.23;;;;;;;6.83;33.25;95923.31;5020617;28;20460;-69
2023/04/05 09:17:01;;;;;;;36.40;25.25;;;;;;;6.92;30.75;95921.59;5019060;28;20037;-69
2023/04/05 09:19:27;;;;;;;49.67;31.23;;;;;;;7.37;32.21;95920.75;5020947;28;20037;-68
2023/04/05 09:22:02;;;;;;;27.90;10.15;;;;;;;7.54;22.92;95927.06;5021141;28;20295;-68
2023/04/05 09:24:32;;;;;;;8.77;5.03;;;;;;;7.44;22.64;95920.16;5020899;28;20573;-68
2023/04/05 09:27:16;;;;;;;8.10;5.22;;;;;;;7.46;23.98;95926.13;5019753;28;20524;-68
2023/04/05 09:29:46;;;;;;;46.15;33.25;;;;;;;7.65;29.81;95922.53;5021662;28;20107;-68
2023/04/05 09:32:12;;;;;;;10.95;5.40;;;;;;;7.66;23.06;95921.53;5018731;28;20444;-68
2023/04/05 09:34:38;;;;;;;6.13;3.90;;;;;;;3.84;27.14;95934.56;5017125;28;20077;-68
2023/04/05 09:37:15;;;;;;;51.97;23.67;;;;;;;5.66;26.64;95926.06;5020492;28;20037;-68
2023/04/05 09:39:41;;;;;;;50.22;21.45;;;;;;;7.05;24.75;95923.88;5019279;28;20112;-68
2023/04/05 09:42:11;;;;;;;5.65;3.97;;;;;;;6.90;22.49;95921.72;5020720;28;20041;-68
2023/04/05 09:44:56;;;;;;;60.17;25.58;;;;;;;7.27;26.41;95918.19;5017396;28;20064;-68
2023/04/05 09:47:33;;;;;;;11.40;8.25;;;;;;;8.14;24.64;95916.81;5018102;28;20119;-68
2023/04/05 09:49:59;;;;;;;20.23;13.93;;;;;;;9.03;23.54;95914.94;5020171;28;20065;-68
2023/04/05 09:52:30;;;;;;;26.23;18.52;;;;;;;9.61;23.48;95914.22;5020539;28;20037;-68
2023/04/05 09:54:57;;;;;;;10.15;5.43;;;;;;;10.01;20.82;95903.78;5016966;28;20068;-68
2023/04/05 09:57:25;;;;;;;25.45;17.25;;;;;;;10.08;22.46;95907.47;5018271;28;20038;-68
2023/04/05 09:59:50;;;;;;;30.35;20.48;;;;;;;10.36;22.25;95907.94;5017374;28;20086;-69
2023/04/05 10:02:16;;;;;;;6.50;3.67;;;;;;;9.15;21.06;95913.66;5015713;28;20045;-68
2023/04/05 10:04:43;;;;;;;8.35;4.18;;;;;;;7.25;22.75;95920.13;5019506;28;20188;-67
2023/04/05 10:07:12;;;;;;;7.20;3.97;;;;;;;6.42;23.78;95921.75;5019366;28;20107;-68
2023/04/05 10:09:41;;;;;;;4.97;3.70;;;;;;;5.39;25.86;95917.84;5020187;28;20060;-68
2023/04/05 10:12:07;;;;;;;7.45;4.20;;;;;;;6.56;25.04;95911.72;5019438;28;20128;-69
2023/04/05 10:14:34;;;;;;;8.60;5.70;;;;;;;7.29;24.77;95907.44;5016908;28;20049;-67
2023/04/05 10:17:07;;;;;;;39.83;14.40;;;;;;;6.82;24.27;95909.25;5018559;28;20442;-67
2023/04/05 10:19:54;;;;;;;88.05;28.13;;;;;;;6.38;24.40;95912.44;5018477;28;20057;-67
2023/04/05 10:23:00;;;;;;;6.05;3.97;;;;;;;6.59;24.33;95908.78;5018359;28;20053;-67
2023/04/05 10:25:50;;;;;;;50.28;33.85;;;;;;;7.13;28.03;95906.28;5012070;28;20166;-67
2023/04/05 10:28:31;;;;;;;51.53;39.40;;;;;;;7.81;30.16;95905.09;5019799;28;20445;-67
2023/04/05 10:31:07;;;;;;;32.25;23.05;;;;;;;7.77;24.61;95900.13;5018393;28;20092;-67
2023/04/05 10:33:40;;;;;;;58.85;39.35;;;;;;;8.28;28.35;95894.19;5017654;28;20500;-67
2023/04/05 10:36:05;;;;;;;7.72;4.25;;;;;;;8.36;22.93;95890.72;5015877;28;20037;-68
2023/04/05 10:38:36;;;;;;;14.55;9.23;;;;;;;8.10;26.95;95896.88;5017617;28;20399;-67
2023/04/05 10:41:08;;;;;;;61.13;41.60;;;;;;;7.54;29.68;95908.50;5015781;28;20061;-68
2023/04/05 10:43:33;;;;;;;60.67;44.33;;;;;;;7.44;31.47;95902.44;5018703;28;20516;-67
2023/04/05 10:45:59;;;;;;;45.85;32.80;;;;;;;7.92;30.38;95904.84;5000556;28;20033;-68
2023/04/05 10:48:31;;;;;;;62.22;46.28;;;;;;;8.38;32.24;95903.84;5016881;28;20521;-68
2023/04/05 10:50:56;;;;;;;57.50;43.03;;;;;;;8.64;31.68;95895.84;5017154;28;20049;-67
2023/04/05 10:53:22;;;;;;;32.50;22.42;;;;;;;8.74;31.24;95890.41;5017934;28;20389;-67
2023/04/05 10:55:47;;;;;;;34.17;24.08;;;;;;;9.26;26.61;95885.97;5014517;28;20025;-68
2023/04/05 10:58:13;;;;;;;41.67;31.10;;;;;;;9.52;28.94;95884.19;5015689;28;20052;-70
2023/04/05 11:00:39;;;;;;;13.43;8.13;;;;;;;10.17;23.54;95884.34;5000382;28;20052;-70
2023/04/05 11:03:04;;;;;;;12.95;8.63;;;;;;;10.30;23.44;95883.84;5017946;28;20132;-70
2023/04/05 11:05:31;;;;;;;38.78;29.33;;;;;;;10.65;27.20;95889.72;5018625;28;20094;-70
2023/04/05 11:08:06;;;;;;;15.93;10.65;;;;;;;10.83;25.88;95880.66;5020110;28;20469;-70
2023/04/05 11:10:36;;;;;;;51.17;36.15;;;;;;;10.82;28.65;95887.00;5000675;28;20336;-70
2023/04/05 11:13:06;;;;;;;10.88;6.40;;;;;;;11.33;20.80;95875.94;5017730;28;20120;-70
2023/04/05 11:15:32;;;;;;;29.88;21.35;;;;;;;11.05;26.66;95883.56;5018463;28;20482;-70
2023/04/05 11:18:07;;;;;;;32.80;24.67;;;;;;;11.42;21.98;95882.03;5018679;28;20498;-70
2023/04/05 11:20:46;;;;;;;30.85;23.30;;;;;;;12.17;25.75;95886.78;5017679;28;20084;-70
2023/04/05 11:23:17;;;;;;;6.45;4.80;;;;;;;12.65;21.05;95867.75;5017837;28;20473;-70
2023/04/05 11:26:06;;;;;;;5.60;3.50;;;;;;;12.74;18.67;95870.34;5017366;28;20390;-70
2023/04/05 11:28:39;;;;;;;5.90;3.63;;;;;;;10.31;20.26;95870.38;5008890;28;20526;-70
2023/04/05 11:31:16;;;;;;;7.43;4.43;;;;;;;10.63;20.00;95865.09;5017580;28;20498;-70
2023/04/05 11:33:45;;;;;;;12.23;7.75;;;;;;;11.17;22.26;95860.03;5018531;28;20044;-71
2023/04/05 11:36:36;;;;;;;23.92;17.63;;;;;;;10.99;23.91;95848.59;5019378;28;20044;-70